Create Custom Reports and Graphics: Custom Report

Latest Observation

39 Stations

Daily Data | America/Los_Angeles
as of 11/30/21 6:31 PM PST
Station Date Daily Max Temp (°F) Time of Max Temp Daily Min Temp (°F) Time of Min Temp Daily Rain (In) Monthly Rain (In) Seasonal Rainfall (In) Daily ETo (in) 7 Day ETo (in) Daily Solar Rad (Cal/cm2) Wind Spd (mph) Daily Max Wind (mph) Time of Max Wind Max Wind Dir (°) Dew Pt (°F) Max RH (%) Min RH (%) Hrs 70-85F (hrs) Hrs > 95F (hrs) Powdery Mildew Stress (pts) Hrs <= 32F (hrs) Hrs <= 28F (hrs) GDDs (DL) Chilling <=45F (hrs) Chilling <=45F Seas (hrs) Daily Leaf Wet Hrs (hrs) Daily Max CanT (°F) Daily Min CanT (°F) Bat Volt Min Day (V) Max 1 Min Rain (In) Max 1 Min Rain Time Max 15 Min Rain (In) Max 15 Min Precip Time Max 60 Min Rain (In) Max 60 Min Rain Time
Colony 1 11/29/21 69.8 1506 38.3 0557 0.00 0.63 8.36 0.059 0.40 245 1.3 9.1 1118 NNW | 336 45.4 100 47 0.00 0.00 - 0.0 0.0 5.2 8.3 112 - - - 12.6 - - - - - -
Colony 2 11/29/21 72.4 1528 37.0 0536 0.00 0.55 7.65 0.061 0.40 252 1.7 8.3 1431 NNW | 329 43.9 97 44 2.73 0.00 - 0.0 0.0 5.5 9.1 142 - - - 12.6 - - - - - -
5 Wells 11/29/21 68.7 1339 37.6 0629 0.00 0.56 7.23 0.066 0.43 290 2.1 11.0 1115 WNW | 294 45.0 100 47 0.00 0.00 - 0.0 0.0 4.8 11.2 130 - - - 12.3 - - - - - -
Simmerhorn 11/29/21 68.9 1340 39.2 0417 - - - - - - - - - - 46.0 100 47 0.00 0.00 - 0.0 0.0 4.7 8.6 107 - - - 12.2 - - - - - -
Galt-East 11/29/21 68.1 1357 38.3 0635 0.00 0.47 5.71 0.055 0.36 233 1.5 9.7 1140 NNW | 332 46.4 100 52 0.00 0.00 - 0.0 0.0 4.7 8.8 118 - - - 12.2 - - - - - -
Borden Hills 11/29/21 70.4 1507 41.4 0654 0.00 0.52 7.02 0.063 0.41 259 3.0 10.9 1127 NW | 304 48.6 100 55 0.16 0.00 - 0.0 0.0 5.9 5.9 72 - - - 12.4 - - - - - -
Sierra Loma-L27 11/29/21 69.4 1452 40.4 0650 0.00 0.50 7.46 - - - 2.0 11.0 1141 WNW | 297 48.2 100 54 0.00 0.00 - 0.0 0.0 5.4 4.6 72 - - - 12.5 - - - - - -
Lockeford 11/29/21 67.1 1412 36.2 0647 0.00 0.69 7.68 0.057 0.38 250 1.0 9.5 1131 WNW | 294 44.5 96 56 0.00 0.00 - 0.0 0.0 4.6 11.2 144 15.3 68.5 37.0 11.9 - - - - - -
Lone Oak-L28 11/29/21 67.6 1343 33.4 0641 0.00 0.51 6.42 - - - 2.1 10.2 1205 NW | 308 43.1 100 59 0.00 0.00 - 0.0 0.0 4.2 14.3 210 - - - 12.5 - - - - - -
Kost Rd 11/29/21 69.4 1525 37.2 0653 0.00 0.66 7.51 0.051 0.35 220 1.0 9.2 1128 NNW | 347 46.3 100 53 0.00 0.00 - 0.0 0.0 4.6 10.4 117 - - - 12.1 - - - - - -
Thornton 11/29/21 67.9 1517 37.0 0707 0.00 0.72 7.32 0.055 0.38 232 0.7 9.8 1126 NNW | 347 43.1 93 50 0.00 0.00 - 0.0 0.0 4.4 12.1 153 16.2 - - 12.4 - - - - - -
Lodi (LangeTwins) 11/29/21 69.4 1356 37.1 0517 0.00 0.77 8.15 0.050 0.34 220 0.6 7.8 1131 NNW | 330 46.0 100 54 0.00 0.00 - 0.0 0.0 4.5 10.6 130 13.3 - - 12.4 - - - - - -
Gilbeau Ranch 11/29/21 69.8 1356 37.8 0631 0.00 0.59 7.59 0.054 0.36 227 0.9 8.6 1132 WNW | 284 44.6 100 45 0.00 0.00 - 0.0 0.0 5.1 11.5 124 - - - 12.2 - - - - - -
Galt West 11/29/21 69.2 1407 37.8 0331 0.00 0.87 8.55 0.055 0.37 235 1.5 9.3 1047 NW | 324 45.6 98 50 0.00 0.00 - 0.0 0.0 4.7 8.9 130 - - - 12.4 - - - - - -
Valley Oak 11/29/21 70.2 1447 36.5 0700 0.00 0.72 7.76 0.056 0.38 240 0.9 9.0 1057 NNW | 332 44.1 100 44 0.03 0.00 - 0.0 0.0 4.8 12.1 158 - - - 12.0 - - - - - -
Guard Rd (Lodi WSW) 11/29/21 69.0 1534 35.4 0616 0.01 0.84 7.20 0.055 0.38 240 1.4 9.6 1131 WNW | 287 44.5 99 48 0.00 0.00 - 0.0 0.0 4.3 10.7 146 9.7 70.0 34.8 12.2 0.01 0525 0.01 0539 0.01 0624
Linden 11/29/21 70.5 1431 35.5 0500 0.00 0.54 6.99 - - - 0.7 8.7 1201 NNW | 344 44.0 100 50 0.29 0.00 - 0.0 0.0 5.1 12.8 167 16.5 - - 12.6 - - - - - -
DeVries Road-North 11/29/21 68.9 1528 35.3 0457 0.00 0.67 7.93 0.052 0.36 229 1.1 8.2 1117 NW | 314 45.1 100 54 0.00 0.00 - 0.0 0.0 4.2 11.2 140 - - - 12.5 - - - - - -
Acampo 11/29/21 68.6 1411 36.2 0424 0.00 0.77 7.52 0.056 0.37 237 0.7 11.1 1123 NW | 319 43.4 100 46 0.00 0.00 - 0.0 0.0 4.5 10.9 147 17.2 - - 13.4 - - - - - -
Acampo (Woodbridge) 11/29/21 67.6 1436 38.2 0611 0.00 0.67 6.86 0.057 0.39 240 1.9 11.0 1132 NW | 305 47.0 100 50 0.00 0.00 - 0.0 0.0 4.8 8.4 97 - - - 12.2 - - - - - -
Lodi West 11/25/21 66.9 1415 35.5 0644 0.00 0.72 7.09 0.050 0.34 246 0.5 6.6 0846 ESE | 115 42.4 100 43 0.00 - - 0.0 0.0 3.4 10.8 68 7.9 - - 10.0 - - - - - -
Teresi-Alpine Rd (East Lodi) 11/29/21 68.9 1437 37.4 0509 0.00 0.62 7.00 0.058 0.40 240 1.5 10.8 1148 NW | 319 44.8 99 48 0.00 0.00 0 0.0 0.0 4.9 10.5 136 - - - 11.9 - - - - - -
Victor - N (Katusha) 11/29/21 67.8 1601 37.3 0558 0.00 - 5.74 - - - 0.8 10.5 1133 N | 8 44.7 100 48 0.00 0.00 0 0.0 0.0 4.6 10.6 - - - - 12.7 - - - - - -
Live Oak 11/29/21 68.9 1424 37.1 0439 0.00 0.65 6.80 0.053 0.36 230 1.0 8.7 1149 WNW | 295 44.5 100 50 0.00 0.00 - 0.0 0.0 4.4 12.5 155 - - - 12.5 - - - - - -
Sheldon 11/29/21 69.2 1510 35.8 0559 0.00 0.66 7.42 0.060 0.41 245 1.3 9.5 1124 NW | 307 43.3 98 47 0.00 0.00 - 0.0 0.0 4.8 11.7 154 14.1 - - 12.6 - - - - - -
Sloughhouse 11/29/21 70.6 1447 35.1 0619 0.00 0.62 7.79 0.061 0.40 246 1.1 10.1 1111 WNW | 284 42.3 99 41 0.23 0.00 - 0.0 0.0 5.0 13.5 165 - - - 12.3 - - - - - -
Utter - Wilson 11/29/21 72.4 1455 36.9 0456 0.00 0.78 7.65 0.060 0.43 245 1.7 9.7 1332 NNW | 328 45.9 100 56 1.50 0.00 - 0.0 0.0 5.1 11.8 139 - - - 12.5 - - - - - -
Clarksburg 11/29/21 70.3 1507 37.7 0612 0.00 0.76 7.57 0.060 0.45 248 1.6 10.0 1329 N | 0 45.6 97 51 0.01 0.00 - 0.0 0.0 4.9 10.2 112 - - - 12.3 - - - - - -
Clarksburg-3A2 11/29/21 67.4 1511 38.0 0633 0.00 0.74 7.32 0.054 0.42 230 1.9 10.8 1404 NNW | 328 46.1 100 56 0.00 0.00 - 0.0 0.0 4.3 11.2 132 - - - 12.6 - - - - - -
Gorter - Wilson 11/29/21 70.7 1327 34.5 0437 0.00 0.78 7.72 0.054 0.39 226 1.2 8.8 1344 NNW | 331 44.5 100 53 0.14 0.00 - 0.0 0.0 4.8 13.6 172 - - - 12.2 - - - - - -
Hood 11/29/21 69.3 1513 36.8 0332 0.00 0.80 7.58 0.057 0.41 247 1.1 7.9 1355 NNW | 341 46.1 100 53 0.00 0.00 - 0.0 0.0 4.7 10.8 135 - - - 12.3 - - - - - -
Courtland-C3 11/29/21 68.9 1504 37.4 0512 0.00 0.82 7.17 - - - 1.6 8.4 1111 NW | 318 46.4 100 54 0.00 0.00 - 0.0 0.0 4.3 9.8 143 - - - 12.5 - - - - - -
Pacific Fruit 11/29/21 70.1 1500 37.5 0257 0.00 0.87 7.83 0.053 0.40 231 1.5 9.6 1230 NE | 47 45.5 97 53 0.03 0.00 - 0.0 0.0 4.7 10.5 126 - - - 12.3 - - - - - -
Ryer Island South 11/29/21 69.7 1435 35.6 0332 0.00 1.04 7.15 0.052 0.41 227 0.9 7.5 1402 WNW | 301 44.1 99 55 0.00 0.00 - 0.0 0.0 4.2 14.0 137 17.6 - - 12.1 - - - - - -
Farmington (Mobley100) 11/29/21 68.5 1429 36.8 0713 - - - - - - 0.5 7.3 1309 NW | 322 43.9 99 51 0.00 0.00 - 0.0 0.0 4.4 12.2 153 - - - 12.4 - - - - - -
Collegeville 11/29/21 69.4 1350 37.0 0714 0.00 0.44 5.00 0.057 0.39 247 0.9 9.0 1227 NW | 309 45.2 100 53 0.00 0.00 - 0.0 0.0 4.7 11.5 140 - - - 12.4 - - - - - -
Oakdale North (28 Mile Rd) 11/29/21 66.9 1433 37.3 0624 - - - - - - 0.6 8.4 1304 NW | 313 45.8 100 52 0.00 0.00 - 0.0 0.0 4.3 9.3 112 - - - 12.7 - - - - - -
Escalon 11/29/21 71.3 1412 36.5 0614 0.00 0.25 4.47 - - - 0.8 10.2 1217 N | 4 44.9 100 49 0.24 0.00 - 0.0 0.0 5.0 11.2 141 14.0 - - 12.3 - - - - - -
Claussen 11/29/21 69.0 1425 35.8 0628 0.00 0.61 3.62 0.058 0.40 246 1.5 11.1 1206 NNW | 348 46.0 100 57 0.00 0.00 - 0.0 0.0 5.0 10.2 125 - - - 12.4 - - - - - -
Max   72.4 - 41.4 - 0.01 1.04 - 0.066 - 290 3.0 11.1 - - 48.6 100 59 2.73 0.00 - 0.0 0.0 5.9 14.3 - 17.6 70.0 37.0 13.4 - - - - - -
Avg   - - - - - 0.67 - - - - 1.3 - - - 45.1 - - 0.14 0.00 - 0.0 0.0 4.7 10.7 - - - - - - - - - - -
Min   66.9 - 33.4 - 0.00 0.25 - 0.050 - 220 0.5 7.3 - - 42.3 93 41 0.00 0.00 - 0.0 0.0 4.2 4.6 - 9.7 68.5 34.8 11.9 - - - - - -